createdAt,value
2023-02-14T00:00:52.362Z,29.80
2023-02-14T00:01:52.351Z,31.00
2023-02-14T00:02:52.430Z,31.50
2023-02-14T00:03:52.358Z,30.20
2023-02-14T00:04:52.393Z,33.10
2023-02-14T00:05:52.306Z,31.40
2023-02-14T00:06:52.287Z,32.80
2023-02-14T00:07:52.271Z,31.10
2023-02-14T00:08:52.298Z,32.70
2023-02-14T00:09:52.253Z,35.40
2023-02-14T00:10:52.222Z,32.60
2023-02-14T00:11:52.225Z,34.50
2023-02-14T00:12:52.241Z,31.00
2023-02-14T00:13:52.229Z,32.90
2023-02-14T00:14:52.186Z,36.40
2023-02-14T00:15:52.201Z,33.40
2023-02-14T00:16:52.175Z,34.60
2023-02-14T00:17:52.154Z,31.80
2023-02-14T00:18:52.160Z,35.30
2023-02-14T00:19:52.157Z,34.00
2023-02-14T00:20:52.103Z,37.30
2023-02-14T00:21:52.100Z,37.60
2023-02-14T00:22:52.093Z,35.70
2023-02-14T00:23:52.095Z,38.50
2023-02-14T00:24:52.078Z,34.20
2023-02-14T00:25:52.040Z,35.60
2023-02-14T00:26:52.053Z,39.00
2023-02-14T00:27:52.036Z,36.50
2023-02-14T00:28:52.023Z,36.90
2023-02-14T00:29:52.036Z,36.30
2023-02-14T00:30:52.137Z,39.50
2023-02-14T00:31:52.034Z,37.60
2023-02-14T00:32:51.955Z,36.00
2023-02-14T00:33:51.961Z,36.70
2023-02-14T00:34:51.953Z,35.10
2023-02-14T00:35:51.925Z,36.90
2023-02-14T00:36:51.942Z,37.20
2023-02-14T00:37:51.899Z,32.80
2023-02-14T00:38:51.902Z,34.30
2023-02-14T00:39:51.881Z,36.70
2023-02-14T00:40:51.934Z,44.70
2023-02-14T00:41:51.859Z,41.10
2023-02-14T00:42:51.825Z,40.80
2023-02-14T00:43:51.821Z,37.00
2023-02-14T00:44:51.834Z,34.80
2023-02-14T00:45:51.835Z,33.90
2023-02-14T00:46:51.783Z,32.50
2023-02-14T00:47:51.794Z,34.90
2023-02-14T00:48:51.763Z,38.10
2023-02-14T00:49:51.782Z,42.20
2023-02-14T00:50:51.826Z,37.20
2023-02-14T00:51:51.714Z,39.40
2023-02-14T00:52:51.718Z,35.60
2023-02-14T00:53:51.684Z,38.00
2023-02-14T00:54:51.699Z,41.10
2023-02-14T00:55:51.674Z,36.90
2023-02-14T00:56:51.644Z,49.90
2023-02-14T00:57:51.658Z,39.30
2023-02-14T00:58:51.643Z,41.90
2023-02-14T00:59:51.631Z,45.30
2023-02-14T01:00:51.641Z,38.50
2023-02-14T01:01:51.592Z,40.40
2023-02-14T01:02:51.645Z,40.50
2023-02-14T01:03:51.582Z,43.50
2023-02-14T01:04:51.583Z,42.40
2023-02-14T01:05:51.532Z,43.00
2023-02-14T01:06:51.553Z,43.30
2023-02-14T01:07:51.530Z,44.30
2023-02-14T01:08:51.515Z,39.20
2023-02-14T01:09:51.503Z,36.10
2023-02-14T01:10:51.486Z,39.60
2023-02-14T01:11:51.494Z,40.20
2023-02-14T01:12:51.463Z,38.60
2023-02-14T01:13:51.450Z,39.60
2023-02-14T01:14:51.443Z,36.20
2023-02-14T01:15:51.423Z,36.10
2023-02-14T01:16:51.444Z,37.60
2023-02-14T01:17:51.396Z,40.60
2023-02-14T01:18:51.397Z,37.70
2023-02-14T01:19:51.373Z,35.90
2023-02-14T01:20:51.378Z,37.20
2023-02-14T01:21:51.332Z,37.80
2023-02-14T01:22:51.353Z,39.20
2023-02-14T01:23:51.304Z,42.10
2023-02-14T01:24:51.324Z,39.90
2023-02-14T01:25:51.284Z,38.40
2023-02-14T01:26:51.283Z,40.80
2023-02-14T01:27:51.255Z,40.90
2023-02-14T01:28:51.259Z,36.60
2023-02-14T01:29:51.248Z,36.40
2023-02-14T01:30:51.248Z,38.20
2023-02-14T01:31:51.266Z,35.50
2023-02-14T01:32:51.209Z,39.00
2023-02-14T01:33:51.183Z,37.70
2023-02-14T01:34:51.210Z,46.50
2023-02-14T01:35:51.157Z,42.50
2023-02-14T01:36:51.145Z,45.70
2023-02-14T01:37:51.134Z,38.50
2023-02-14T01:38:51.148Z,42.90
2023-02-14T01:39:51.126Z,43.70
2023-02-14T01:40:51.104Z,43.10
2023-02-14T01:41:51.099Z,43.60
2023-02-14T01:42:51.069Z,43.20
2023-02-14T01:43:51.062Z,45.60
2023-02-14T01:44:51.078Z,46.40
2023-02-14T01:45:51.070Z,41.60
2023-02-14T01:46:51.019Z,39.70
2023-02-14T01:47:50.999Z,39.30
2023-02-14T01:48:51.027Z,40.40
2023-02-14T01:49:51.013Z,37.20
2023-02-14T01:50:50.980Z,39.90
2023-02-14T01:51:50.985Z,39.80
2023-02-14T01:52:50.968Z,39.70
2023-02-14T01:53:50.930Z,39.60
2023-02-14T01:54:50.929Z,39.30
2023-02-14T01:55:50.903Z,36.40
2023-02-14T01:56:50.934Z,40.00
2023-02-14T01:57:50.885Z,37.40
2023-02-14T01:58:50.893Z,39.00
2023-02-14T01:59:50.860Z,38.80
2023-02-14T02:00:50.873Z,36.00
2023-02-14T02:01:50.845Z,37.00
2023-02-14T02:02:50.821Z,40.60
2023-02-14T02:03:50.830Z,40.00
2023-02-14T02:04:50.811Z,41.20
2023-02-14T02:05:50.794Z,40.20
2023-02-14T02:06:50.772Z,42.20
2023-02-14T02:07:50.856Z,38.10
2023-02-14T02:08:50.735Z,39.00
2023-02-14T02:09:50.741Z,40.40
2023-02-14T02:10:50.753Z,39.50
2023-02-14T02:11:50.703Z,42.80
2023-02-14T02:12:50.703Z,39.70
2023-02-14T02:13:50.673Z,41.40
2023-02-14T02:14:50.668Z,41.10
2023-02-14T02:15:50.710Z,40.00
2023-02-14T02:16:50.723Z,47.90
2023-02-14T02:17:50.643Z,42.60
2023-02-14T02:18:50.639Z,43.00
2023-02-14T02:19:50.614Z,50.20
2023-02-14T02:20:50.601Z,51.20
2023-02-14T02:21:50.573Z,52.80
2023-02-14T02:22:50.563Z,46.00
2023-02-14T02:23:50.574Z,48.30
2023-02-14T02:24:50.552Z,46.20
2023-02-14T02:25:50.552Z,48.00
2023-02-14T02:26:50.518Z,41.90
2023-02-14T02:27:50.522Z,45.90
2023-02-14T02:28:50.494Z,49.50
2023-02-14T02:29:50.484Z,53.00
2023-02-14T02:30:50.624Z,52.20
2023-02-14T02:31:50.588Z,45.40
2023-02-14T02:32:50.433Z,54.10
2023-02-14T02:33:50.434Z,56.30
2023-02-14T02:34:50.428Z,52.10
2023-02-14T02:35:50.411Z,47.40
2023-02-14T02:36:50.390Z,48.40
2023-02-14T02:37:50.384Z,52.50
2023-02-14T02:38:50.374Z,51.10
2023-02-14T02:39:50.374Z,47.50
2023-02-14T02:40:50.363Z,54.70
2023-02-14T02:41:50.317Z,54.80
2023-02-14T02:42:50.332Z,54.60
2023-02-14T02:43:50.292Z,53.80
2023-02-14T02:44:50.306Z,54.30
2023-02-14T02:45:50.361Z,53.00
2023-02-14T02:46:50.281Z,59.00
2023-02-14T02:47:50.250Z,55.60
2023-02-14T02:48:50.237Z,50.80
2023-02-14T02:49:50.230Z,47.20
2023-02-14T02:50:50.252Z,51.40
2023-02-14T02:51:50.204Z,49.40
2023-02-14T02:52:50.184Z,51.90
2023-02-14T02:53:50.190Z,49.50
2023-02-14T02:54:50.172Z,49.40
2023-02-14T02:55:50.152Z,50.00
2023-02-14T02:56:50.132Z,48.70
2023-02-14T02:57:50.127Z,54.30
2023-02-14T02:58:50.123Z,52.40
2023-02-14T02:59:50.119Z,51.50
2023-02-14T03:00:50.093Z,54.80
2023-02-14T03:01:50.089Z,74.00
2023-02-14T03:02:50.073Z,70.00
2023-02-14T03:03:50.070Z,64.30
2023-02-14T03:04:50.100Z,61.20
2023-02-14T03:05:50.049Z,61.40
2023-02-14T03:06:50.015Z,62.00
2023-02-14T03:07:50.004Z,60.70
2023-02-14T03:08:50.031Z,68.40
2023-02-14T03:09:49.972Z,72.00
2023-02-14T03:10:49.973Z,72.80
2023-02-14T03:11:49.953Z,59.60
2023-02-14T03:12:49.962Z,59.40
2023-02-14T03:13:49.943Z,57.20
2023-02-14T03:14:49.920Z,66.60
2023-02-14T03:15:49.988Z,76.00
2023-02-14T03:16:49.897Z,68.60
2023-02-14T03:17:49.872Z,65.00
2023-02-14T03:18:49.855Z,65.20
2023-02-14T03:19:49.842Z,71.00
2023-02-14T03:20:49.863Z,69.10
2023-02-14T03:21:49.823Z,78.40
2023-02-14T03:22:49.850Z,65.10
2023-02-14T03:23:49.821Z,69.60
2023-02-14T03:24:49.782Z,69.40
2023-02-14T03:25:49.786Z,66.20
2023-02-14T03:26:49.778Z,74.90
2023-02-14T03:27:49.748Z,63.00
2023-02-14T03:28:49.769Z,65.20
2023-02-14T03:29:49.742Z,72.60
2023-02-14T03:30:49.811Z,65.20
2023-02-14T03:31:49.892Z,65.60
2023-02-14T03:32:49.683Z,71.30
2023-02-14T03:33:49.656Z,64.20
2023-02-14T03:34:49.655Z,64.30
2023-02-14T03:35:49.648Z,67.20
2023-02-14T03:36:49.641Z,68.70
2023-02-14T03:37:49.614Z,70.90
2023-02-14T03:38:49.628Z,71.20
2023-02-14T03:39:49.588Z,64.50
2023-02-14T03:40:49.626Z,72.20
2023-02-14T03:41:49.596Z,71.00
2023-02-14T03:42:49.556Z,71.50
2023-02-14T03:43:49.578Z,65.40
2023-02-14T03:44:49.572Z,73.60
2023-02-14T03:45:49.527Z,77.10
2023-02-14T03:46:49.517Z,86.00
2023-02-14T03:47:49.487Z,84.20
2023-02-14T03:48:49.479Z,79.10
2023-02-14T03:49:49.473Z,80.70
2023-02-14T04:03:17.171Z,63.60
2023-02-14T04:04:17.092Z,60.90
2023-02-14T04:05:17.086Z,64.00
2023-02-14T04:06:17.086Z,60.90
2023-02-14T04:07:17.072Z,60.60
2023-02-14T04:08:17.063Z,58.30
2023-02-14T04:09:17.030Z,54.60
2023-02-14T04:10:17.063Z,58.50
2023-02-14T04:11:17.033Z,59.30
2023-02-14T04:12:19.853Z,56.80
2023-02-14T04:13:17.990Z,56.60
2023-02-14T04:14:17.005Z,54.70
2023-02-14T04:15:16.954Z,54.60
2023-02-14T04:16:17.060Z,52.80
2023-02-14T04:17:16.954Z,54.40
2023-02-14T04:18:16.932Z,55.10
2023-02-14T04:19:24.490Z,51.40
2023-02-14T04:20:16.888Z,51.20
2023-02-14T04:21:16.895Z,67.60
2023-02-14T04:22:16.861Z,68.00
2023-02-14T04:23:16.855Z,71.80
2023-02-14T04:24:16.836Z,61.70
2023-02-14T04:25:16.832Z,61.10
2023-02-14T04:26:16.833Z,70.00
2023-02-14T04:27:16.805Z,59.20
2023-02-14T04:28:16.789Z,57.70
2023-02-14T04:29:16.786Z,51.20
2023-02-14T04:30:16.812Z,67.30
2023-02-14T04:31:16.842Z,67.60
2023-02-14T04:32:16.795Z,61.10
2023-02-14T04:33:16.726Z,63.10
2023-02-14T04:34:16.730Z,58.40
2023-02-14T04:35:16.724Z,57.90
2023-02-14T04:36:16.688Z,54.60
2023-02-14T04:37:16.731Z,62.50
2023-02-14T04:38:16.689Z,60.90
2023-02-14T04:39:16.659Z,66.70
2023-02-14T04:40:16.680Z,62.10
2023-02-14T04:41:16.663Z,68.90
2023-02-14T04:42:16.681Z,70.60
2023-02-14T04:43:16.600Z,56.20
2023-02-14T04:44:16.595Z,70.00
2023-02-14T04:45:16.583Z,71.60
2023-02-14T04:46:16.617Z,60.70
2023-02-14T04:47:16.573Z,73.70
2023-02-14T04:48:16.535Z,73.20
2023-02-14T04:49:16.526Z,63.60
2023-02-14T04:50:16.537Z,62.50
2023-02-14T04:51:16.534Z,60.80
2023-02-14T04:52:16.495Z,65.90
2023-02-14T04:53:16.476Z,74.80
2023-02-14T04:54:16.456Z,57.00
2023-02-14T04:55:16.459Z,74.40
2023-02-14T04:56:16.471Z,64.80
2023-02-14T04:57:16.434Z,55.60
2023-02-14T04:58:16.417Z,58.20
2023-02-14T04:59:16.408Z,58.40
2023-02-14T05:00:16.404Z,64.60
2023-02-14T05:01:16.418Z,59.20
2023-02-14T05:02:16.443Z,58.50
2023-02-14T05:03:16.352Z,76.10
2023-02-14T05:04:16.328Z,64.70
2023-02-14T05:05:16.326Z,62.80
2023-02-14T05:06:16.338Z,64.60
2023-02-14T05:07:16.318Z,61.30
2023-02-14T05:08:16.298Z,60.80
2023-02-14T05:09:16.283Z,63.40
2023-02-14T05:10:16.267Z,65.70
2023-02-14T05:11:16.264Z,66.00
2023-02-14T05:12:16.245Z,71.60
2023-02-14T05:13:16.254Z,81.50
2023-02-14T05:14:16.213Z,76.50
2023-02-14T05:15:16.210Z,71.20
2023-02-14T05:16:16.216Z,77.00
2023-02-14T05:17:16.188Z,62.70
2023-02-14T05:18:16.196Z,55.30
2023-02-14T05:19:16.147Z,75.50
2023-02-14T05:20:16.123Z,58.70
2023-02-14T05:21:16.147Z,53.40
2023-02-14T05:22:18.409Z,54.90
2023-02-14T05:23:16.121Z,55.60
2023-02-14T05:24:16.070Z,66.90
2023-02-14T05:25:16.067Z,64.10
2023-02-14T05:26:16.071Z,62.60
2023-02-14T05:27:16.082Z,59.50
2023-02-14T05:28:16.034Z,59.80
2023-02-14T05:29:16.064Z,65.00
2023-02-14T05:30:16.056Z,82.10
2023-02-14T05:31:16.128Z,61.30
2023-02-14T05:32:16.006Z,81.60
2023-02-14T05:33:15.972Z,63.10
2023-02-14T05:34:15.951Z,59.50
2023-02-14T05:35:15.961Z,58.40
2023-02-14T05:36:15.947Z,59.30
2023-02-14T05:37:15.922Z,60.40
2023-02-14T05:38:15.904Z,75.00
2023-02-14T05:39:15.912Z,59.00
2023-02-14T05:40:15.891Z,58.70
2023-02-14T05:41:15.881Z,66.50
2023-02-14T05:42:15.846Z,63.50
2023-02-14T05:43:15.842Z,60.70
2023-02-14T05:44:15.856Z,60.90
2023-02-14T05:45:15.811Z,59.70
2023-02-14T05:46:15.899Z,61.70
2023-02-14T05:47:15.794Z,65.30
2023-02-14T05:48:15.780Z,60.10
2023-02-14T05:49:15.794Z,54.10
2023-02-14T05:50:15.752Z,60.50
2023-02-14T05:51:15.769Z,67.00
2023-02-14T05:52:15.715Z,66.90
2023-02-14T05:53:15.755Z,64.00
2023-02-14T05:54:15.732Z,68.10
2023-02-14T05:55:15.686Z,78.90
2023-02-14T05:56:15.697Z,80.10
2023-02-14T05:57:15.680Z,82.50
2023-02-14T05:58:15.678Z,79.10
2023-02-14T05:59:15.666Z,66.80
2023-02-14T06:00:15.641Z,70.40
2023-02-14T06:01:15.628Z,73.40
2023-02-14T06:02:15.636Z,92.60
2023-02-14T06:03:15.608Z,76.20
2023-02-14T06:04:15.623Z,68.30
2023-02-14T06:05:15.590Z,64.80
2023-02-14T06:06:15.558Z,86.00
2023-02-14T06:07:15.540Z,84.70
2023-02-14T06:08:15.551Z,78.00
2023-02-14T06:09:15.535Z,79.50
2023-02-14T06:10:15.531Z,70.10
2023-02-14T06:11:15.521Z,77.00
2023-02-14T06:12:15.485Z,68.20
2023-02-14T06:13:15.479Z,62.10
2023-02-14T06:14:15.463Z,68.10
2023-02-14T06:15:15.541Z,72.60
2023-02-14T06:16:15.496Z,73.00
2023-02-14T06:17:15.434Z,80.00
2023-02-14T06:18:15.401Z,61.60
2023-02-14T06:19:15.461Z,66.40
2023-02-14T06:20:15.382Z,59.90
2023-02-14T06:21:15.402Z,67.80
2023-02-14T06:22:15.353Z,63.60
2023-02-14T06:23:15.342Z,86.20
2023-02-14T06:24:15.331Z,68.60
2023-02-14T06:25:15.328Z,66.20
2023-02-14T06:26:15.324Z,62.90
2023-02-14T06:27:15.304Z,82.20
2023-02-14T06:28:15.290Z,57.70
2023-02-14T06:29:15.290Z,65.60
2023-02-14T06:30:15.301Z,60.80
2023-02-14T06:31:15.360Z,67.70
2023-02-14T06:32:15.357Z,82.50
2023-02-14T06:33:15.222Z,60.90
2023-02-14T06:34:16.217Z,72.60
2023-02-14T06:35:15.231Z,62.40
2023-02-14T06:36:15.198Z,65.50
2023-02-14T06:37:15.170Z,71.20
2023-02-14T06:38:15.165Z,76.80
2023-02-14T06:39:15.140Z,65.80
2023-02-14T06:40:15.155Z,58.80
2023-02-14T06:41:15.131Z,59.40
2023-02-14T06:42:15.111Z,55.80
2023-02-14T06:43:15.090Z,64.70
2023-02-14T06:44:15.089Z,60.90
2023-02-14T06:45:15.075Z,58.50
2023-02-14T06:46:15.094Z,54.40
2023-02-14T06:47:15.040Z,54.20
2023-02-14T06:48:15.031Z,58.80
2023-02-14T06:49:15.021Z,53.20
2023-02-14T06:50:15.005Z,64.70
2023-02-14T06:51:15.004Z,62.40
2023-02-14T06:52:14.993Z,74.00
2023-02-14T06:53:14.962Z,62.50
2023-02-14T06:54:14.951Z,56.70
2023-02-14T06:55:14.941Z,55.20
2023-02-14T06:56:14.956Z,53.30
2023-02-14T06:57:14.937Z,52.80
2023-02-14T06:58:14.892Z,58.40
2023-02-14T06:59:14.900Z,66.70
2023-02-14T07:00:14.964Z,54.70
2023-02-14T07:01:14.866Z,60.30
2023-02-14T07:02:14.904Z,62.80
2023-02-14T07:03:14.833Z,60.20
2023-02-14T07:04:14.828Z,62.90
2023-02-14T07:05:14.828Z,60.40
2023-02-14T07:06:14.832Z,57.70
2023-02-14T07:07:14.802Z,61.80
2023-02-14T07:08:14.766Z,55.90
2023-02-14T07:09:14.761Z,63.90
2023-02-14T07:10:14.757Z,61.90
2023-02-14T07:11:14.731Z,59.50
2023-02-14T07:12:14.744Z,58.90
2023-02-14T07:13:14.701Z,58.10
2023-02-14T07:14:14.715Z,53.60
2023-02-14T07:15:14.689Z,55.50
2023-02-14T07:16:14.743Z,55.10
2023-02-14T07:17:14.675Z,55.70
2023-02-14T07:18:14.651Z,63.70
2023-02-14T07:19:14.644Z,61.00
2023-02-14T07:20:14.631Z,61.20
2023-02-14T07:21:14.601Z,58.50
2023-02-14T07:22:14.627Z,60.60
2023-02-14T07:23:14.599Z,64.20
2023-02-14T07:24:14.582Z,64.60
2023-02-14T07:25:14.573Z,59.70
2023-02-14T07:26:14.543Z,67.00
2023-02-14T07:27:14.550Z,55.90
2023-02-14T07:28:14.533Z,58.80
2023-02-14T07:29:14.551Z,57.40
2023-02-14T07:30:14.519Z,67.50
2023-02-14T07:31:14.592Z,61.60
2023-02-14T07:32:14.563Z,55.70
2023-02-14T07:33:14.461Z,58.30
2023-02-14T07:34:14.485Z,60.90
2023-02-14T07:35:15.315Z,54.90
2023-02-14T07:36:14.417Z,58.30
2023-02-14T07:37:14.414Z,72.90
2023-02-14T07:38:14.383Z,70.10
2023-02-14T07:39:14.416Z,60.50
2023-02-14T07:40:15.428Z,57.90
2023-02-14T07:41:14.362Z,76.60
2023-02-14T07:42:14.356Z,65.30
2023-02-14T07:43:14.347Z,58.20
2023-02-14T07:44:14.321Z,65.50
2023-02-14T07:45:22.385Z,81.10
2023-02-14T07:46:15.329Z,69.20
2023-02-14T07:47:14.280Z,60.40
2023-02-14T07:48:14.287Z,64.20
2023-02-14T07:49:14.258Z,69.20
2023-02-14T07:50:14.240Z,61.00
2023-02-14T07:51:14.213Z,67.70
2023-02-14T07:52:14.234Z,79.80
2023-02-14T07:53:14.207Z,79.90
2023-02-14T07:54:14.192Z,66.20
2023-02-14T07:55:14.178Z,65.40
2023-02-14T07:56:14.173Z,82.70
2023-02-14T07:57:14.141Z,89.60
2023-02-14T07:58:14.155Z,78.80
2023-02-14T07:59:14.217Z,86.10
2023-02-14T08:00:14.105Z,87.10
2023-02-14T08:01:14.111Z,78.50
2023-02-14T08:02:14.089Z,77.30
2023-02-14T08:03:14.112Z,79.30
2023-02-14T08:04:14.106Z,79.80
2023-02-14T08:05:14.086Z,71.00
2023-02-14T08:06:14.030Z,77.20
2023-02-14T08:07:14.018Z,77.50
2023-02-14T08:08:14.033Z,72.00
2023-02-14T08:09:13.991Z,71.80
2023-02-14T08:10:14.008Z,72.70
2023-02-14T08:11:13.960Z,88.90
2023-02-14T08:12:13.963Z,66.60
2023-02-14T08:13:13.952Z,74.50
2023-02-14T08:14:13.946Z,67.70
2023-02-14T08:15:13.928Z,61.70
2023-02-14T08:16:13.978Z,62.50
2023-02-14T08:17:13.929Z,62.50
2023-02-14T08:18:13.900Z,64.70
2023-02-14T08:19:13.872Z,63.30
2023-02-14T08:20:13.859Z,66.60
2023-02-14T08:21:13.850Z,59.50
2023-02-14T08:22:13.843Z,62.20
2023-02-14T08:23:13.830Z,54.00
2023-02-14T08:24:13.809Z,57.90
2023-02-14T08:25:13.796Z,58.80
2023-02-14T08:26:13.777Z,56.00
2023-02-14T08:27:13.783Z,53.90
2023-02-14T08:28:13.814Z,48.20
2023-02-14T08:29:16.017Z,49.20
2023-02-14T08:30:13.772Z,50.90
2023-02-14T08:31:14.841Z,56.10
2023-02-14T08:32:13.763Z,48.20
2023-02-14T08:33:13.696Z,46.20
2023-02-14T08:34:13.676Z,51.70
2023-02-14T08:35:13.666Z,57.50
2023-02-14T08:36:13.666Z,56.10
2023-02-14T08:37:13.643Z,52.60
2023-02-14T08:38:13.634Z,51.40
2023-02-14T08:39:13.615Z,49.30
2023-02-14T08:40:13.606Z,57.80
2023-02-14T08:41:13.586Z,55.40
2023-02-14T08:42:13.621Z,55.30
2023-02-14T08:43:13.564Z,49.00
2023-02-14T08:44:13.568Z,44.80
2023-02-14T08:45:13.551Z,51.00
2023-02-14T08:46:13.588Z,54.20
2023-02-14T08:47:13.538Z,58.30
2023-02-14T08:48:13.514Z,49.30
2023-02-14T08:49:13.500Z,57.40
2023-02-14T08:50:13.485Z,57.30
2023-02-14T08:51:13.488Z,56.10
2023-02-14T08:52:13.473Z,51.70
2023-02-14T08:53:13.449Z,56.80
2023-02-14T08:54:13.440Z,48.40
2023-02-14T08:55:13.416Z,53.10
2023-02-14T08:56:13.449Z,45.90
2023-02-14T08:57:13.430Z,45.40
2023-02-14T08:58:13.376Z,50.80
2023-02-14T08:59:13.442Z,43.80
2023-02-14T09:00:13.350Z,46.40
2023-02-14T09:01:13.413Z,50.80
2023-02-14T09:02:13.354Z,52.50
2023-02-14T09:03:13.306Z,47.90
2023-02-14T09:04:13.459Z,53.80
2023-02-14T09:05:13.302Z,45.90
2023-02-14T09:06:13.266Z,42.90
2023-02-14T09:07:13.275Z,44.60
2023-02-14T09:08:13.246Z,46.40
2023-02-14T09:09:13.249Z,40.60
2023-02-14T09:10:13.285Z,40.90
2023-02-14T09:11:13.198Z,41.40
2023-02-14T09:12:13.217Z,42.80
2023-02-14T09:13:13.177Z,44.00
2023-02-14T09:14:13.178Z,41.40
2023-02-14T09:15:13.159Z,40.90
2023-02-14T09:16:13.223Z,46.00
2023-02-14T09:17:13.148Z,48.50
2023-02-14T09:18:13.132Z,47.30
2023-02-14T09:19:13.121Z,48.30
2023-02-14T09:20:13.113Z,42.60
2023-02-14T09:21:13.076Z,44.20
2023-02-14T09:22:13.106Z,46.80
2023-02-14T09:23:13.048Z,49.90
2023-02-14T09:24:13.058Z,43.80
2023-02-14T09:25:13.026Z,46.40
2023-02-14T09:26:13.018Z,47.30
2023-02-14T09:27:13.026Z,42.40
2023-02-14T09:28:12.990Z,44.60
2023-02-14T09:29:12.990Z,46.00
2023-02-14T09:30:13.062Z,43.50
2023-02-14T09:31:13.095Z,42.80
2023-02-14T09:32:13.069Z,43.30
2023-02-14T09:33:12.956Z,46.10
2023-02-14T09:34:12.919Z,45.30
2023-02-14T09:35:12.912Z,41.10
2023-02-14T09:36:12.906Z,42.10
2023-02-14T09:37:12.889Z,44.90
2023-02-14T09:38:12.889Z,38.70
2023-02-14T09:39:12.854Z,42.20
2023-02-14T09:40:12.851Z,37.00
2023-02-14T09:41:12.831Z,38.50
2023-02-14T09:42:12.832Z,40.30
2023-02-14T09:43:12.818Z,38.50
2023-02-14T09:44:12.777Z,35.60
2023-02-14T09:45:12.799Z,36.90
2023-02-14T09:46:12.799Z,36.60
2023-02-14T09:47:12.752Z,34.50
2023-02-14T10:03:44.852Z,32.10
2023-02-14T10:04:44.825Z,33.80
2023-02-14T10:05:44.785Z,32.90
2023-02-14T10:06:44.786Z,34.40
2023-02-14T10:07:44.768Z,37.60
2023-02-14T10:08:44.759Z,33.70
2023-02-14T10:09:44.751Z,33.40
2023-02-14T10:10:44.755Z,36.10
2023-02-14T10:11:44.715Z,34.40
2023-02-14T10:12:44.713Z,29.70
2023-02-14T10:13:44.691Z,32.90
2023-02-14T10:14:44.702Z,29.50
2023-02-14T10:15:44.687Z,30.50
2023-02-14T10:16:45.445Z,29.50
2023-02-14T10:17:44.664Z,28.50
2023-02-14T10:18:44.634Z,29.30
2023-02-14T10:19:44.635Z,29.90
2023-02-14T10:20:44.635Z,30.40
2023-02-14T10:21:45.988Z,28.40
2023-02-14T10:22:44.589Z,29.70
2023-02-14T10:23:44.567Z,28.50
2023-02-14T10:24:44.590Z,29.00
2023-02-14T10:25:44.543Z,27.80
2023-02-14T10:26:44.529Z,29.20
2023-02-14T10:27:44.571Z,29.90
2023-02-14T10:28:44.513Z,30.30
2023-02-14T10:29:44.496Z,26.90
2023-02-14T10:30:44.541Z,27.40
2023-02-14T10:31:44.586Z,25.80
2023-02-14T10:32:44.448Z,29.00
2023-02-14T10:33:44.433Z,30.20
2023-02-14T10:34:44.413Z,27.00
2023-02-14T10:35:44.428Z,26.10
2023-02-14T10:36:44.406Z,28.80
2023-02-14T10:37:44.394Z,28.50
2023-02-14T10:38:44.365Z,31.60
2023-02-14T10:39:44.357Z,29.80
2023-02-14T10:40:44.400Z,30.30
2023-02-14T10:41:44.326Z,29.30
2023-02-14T10:42:44.319Z,28.50
2023-02-14T10:43:44.305Z,28.30
2023-02-14T10:44:44.287Z,30.30
2023-02-14T10:45:44.292Z,27.20
2023-02-14T10:46:44.296Z,26.50
2023-02-14T10:47:44.246Z,25.90
2023-02-14T10:48:44.245Z,26.20
2023-02-14T10:49:44.244Z,25.60
2023-02-14T10:50:44.233Z,25.30
2023-02-14T10:51:44.188Z,24.00
2023-02-14T10:52:44.188Z,26.80
2023-02-14T10:53:44.195Z,24.10
2023-02-14T10:54:44.180Z,24.90
2023-02-14T10:55:44.158Z,26.40
2023-02-14T10:56:44.139Z,28.40
2023-02-14T10:57:44.119Z,25.00
2023-02-14T10:58:44.102Z,26.40
2023-02-14T10:59:44.097Z,25.50
2023-02-14T11:00:44.095Z,26.90
2023-02-14T11:01:44.109Z,26.40
2023-02-14T11:02:44.048Z,27.00
2023-02-14T11:03:44.349Z,24.90
2023-02-14T11:04:44.037Z,27.40
2023-02-14T11:05:46.575Z,27.80
2023-02-14T11:06:44.008Z,27.80
2023-02-14T11:07:43.986Z,25.20
2023-02-14T11:08:44.013Z,25.70
2023-02-14T11:09:43.948Z,27.90
2023-02-14T11:10:43.968Z,28.00
2023-02-14T11:11:43.970Z,25.40
2023-02-14T11:12:43.922Z,26.80
2023-02-14T11:13:43.930Z,27.80
2023-02-14T11:14:43.910Z,27.70
2023-02-14T11:15:43.889Z,27.80
2023-02-14T11:16:43.929Z,29.10
2023-02-14T11:17:43.874Z,25.80
2023-02-14T11:18:43.854Z,25.60
2023-02-14T11:19:43.842Z,24.40
2023-02-14T11:20:43.830Z,25.10
2023-02-14T11:21:43.829Z,24.30
2023-02-14T11:22:43.803Z,25.60
2023-02-14T11:23:43.775Z,27.50
2023-02-14T11:24:43.792Z,24.90
2023-02-14T11:25:43.762Z,24.00
2023-02-14T11:26:43.759Z,26.20
2023-02-14T11:27:43.719Z,25.20
2023-02-14T11:28:43.722Z,24.20
2023-02-14T11:29:43.747Z,26.50
2023-02-14T11:30:43.740Z,25.50
2023-02-14T11:31:43.811Z,25.60
2023-02-14T11:32:43.669Z,24.00
2023-02-14T11:33:43.653Z,25.50
2023-02-14T11:34:43.646Z,23.30
2023-02-14T11:35:43.620Z,25.10
2023-02-14T11:36:43.627Z,25.00
2023-02-14T11:37:43.606Z,26.00
2023-02-14T11:38:43.591Z,24.40
2023-02-14T11:39:43.579Z,26.20
2023-02-14T11:40:43.554Z,24.00
2023-02-14T11:41:43.567Z,24.60
2023-02-14T11:42:43.547Z,25.20
2023-02-14T11:43:43.519Z,24.30
2023-02-14T11:44:43.509Z,26.40
2023-02-14T11:45:43.521Z,26.20
2023-02-14T11:46:52.724Z,25.00
2023-02-14T11:47:44.481Z,25.70
2023-02-14T11:48:43.461Z,24.80
2023-02-14T11:49:43.446Z,22.90
2023-02-14T11:50:43.461Z,24.00
2023-02-14T11:51:43.435Z,24.70
2023-02-14T11:52:43.413Z,24.30
2023-02-14T11:53:43.393Z,26.10
2023-02-14T11:54:43.405Z,22.20
2023-02-14T11:55:43.370Z,27.60
2023-02-14T11:56:43.363Z,24.90
2023-02-14T11:57:43.362Z,26.20
2023-02-14T11:58:43.340Z,25.30
2023-02-14T11:59:43.323Z,23.30
2023-02-14T12:00:43.314Z,24.40
2023-02-14T12:01:43.314Z,24.10
2023-02-14T12:02:43.372Z,23.80
2023-02-14T12:03:43.328Z,22.30
2023-02-14T12:04:46.562Z,23.00
2023-02-14T12:05:43.257Z,24.20
2023-02-14T12:06:43.262Z,22.70
2023-02-14T12:07:43.234Z,22.40
2023-02-14T12:08:43.230Z,24.00
2023-02-14T12:09:43.228Z,23.70
2023-02-14T12:10:43.190Z,23.50
2023-02-14T12:11:43.178Z,23.20
2023-02-14T12:12:43.174Z,23.30
2023-02-14T12:13:43.154Z,21.50
2023-02-14T12:14:43.136Z,21.10
2023-02-14T12:15:43.160Z,23.10
2023-02-14T12:16:43.124Z,23.30
2023-02-14T12:17:43.107Z,23.10
2023-02-14T12:18:43.094Z,22.60
2023-02-14T12:19:43.066Z,22.40
2023-02-14T12:20:43.063Z,22.40
2023-02-14T12:21:43.063Z,22.10
2023-02-14T12:22:43.064Z,22.40
2023-02-14T12:23:43.025Z,21.40
2023-02-14T12:24:43.010Z,22.00
2023-02-14T12:25:42.996Z,21.80
2023-02-14T12:26:42.986Z,21.50
2023-02-14T12:27:42.976Z,21.50
2023-02-14T12:28:42.961Z,21.40
2023-02-14T12:29:42.924Z,21.70
2023-02-14T12:30:42.937Z,21.90
2023-02-14T12:31:43.090Z,21.50
2023-02-14T12:32:42.905Z,22.60
2023-02-14T12:33:42.893Z,22.00
2023-02-14T12:34:42.874Z,20.10
2023-02-14T12:35:42.890Z,19.90
2023-02-14T12:36:42.854Z,21.00
2023-02-14T12:37:43.554Z,20.70
2023-02-14T12:38:42.845Z,21.20
2023-02-14T12:39:42.792Z,21.10
2023-02-14T12:40:42.791Z,20.30
2023-02-14T12:41:42.776Z,20.00
2023-02-14T12:42:42.795Z,20.70
2023-02-14T12:43:42.742Z,19.80
2023-02-14T12:44:42.732Z,21.80
2023-02-14T12:45:42.732Z,21.20
2023-02-14T12:46:42.734Z,22.30
2023-02-14T12:47:42.701Z,21.30
2023-02-14T12:48:42.684Z,21.10
2023-02-14T12:49:42.665Z,23.10
2023-02-14T12:50:42.673Z,20.00
2023-02-14T12:51:42.652Z,20.40
2023-02-14T12:52:42.672Z,21.20
2023-02-14T12:53:42.629Z,22.20
2023-02-14T12:54:42.606Z,21.80
2023-02-14T12:55:42.585Z,20.60
2023-02-14T12:56:42.585Z,20.00
2023-02-14T12:57:42.585Z,21.90
2023-02-14T12:58:42.566Z,21.00
2023-02-14T12:59:42.555Z,20.40
2023-02-14T13:00:42.529Z,20.00
2023-02-14T13:01:42.559Z,19.70
2023-02-14T13:02:42.675Z,20.60
2023-02-14T13:03:42.498Z,21.60
2023-02-14T13:04:42.487Z,20.30
2023-02-14T13:05:42.457Z,21.30
2023-02-14T13:06:42.458Z,20.50
2023-02-14T13:07:42.462Z,21.20
2023-02-14T13:08:42.458Z,21.30
2023-02-14T13:09:42.417Z,20.90
2023-02-14T13:10:42.410Z,20.70
2023-02-14T13:11:42.399Z,21.80
2023-02-14T13:12:42.399Z,22.00
2023-02-14T13:13:42.366Z,21.80
2023-02-14T13:14:42.355Z,21.60
2023-02-14T13:15:42.337Z,20.70
2023-02-14T13:16:42.338Z,22.70
2023-02-14T13:17:42.332Z,20.70
2023-02-14T13:18:42.332Z,23.60
2023-02-14T13:19:42.294Z,21.80
2023-02-14T13:20:42.278Z,22.70